sensor_id;sensor_type;location;lat;lon;timestamp;pressure;altitude;pressure_sealevel;temperature;humidity
38812;BME280;24553;51.640;-0.752;2023-01-30T00:00:30;101444.91;;;6.80;100.00
38812;BME280;24553;51.640;-0.752;2023-01-30T00:02:56;101437.00;;;6.80;100.00
38812;BME280;24553;51.640;-0.752;2023-01-30T00:05:21;101428.16;;;6.71;100.00
38812;BME280;24553;51.640;-0.752;2023-01-30T00:07:47;101434.97;;;6.64;100.00
38812;BME280;24553;51.640;-0.752;2023-01-30T00:10:12;101434.09;;;6.73;100.00
38812;BME280;24553;51.640;-0.752;2023-01-30T00:12:38;101433.97;;;6.75;100.00
38812;BME280;24553;51.640;-0.752;2023-01-30T00:15:04;101432.28;;;6.84;100.00
38812;BME280;24553;51.640;-0.752;2023-01-30T00:17:29;101436.69;;;6.93;100.00
38812;BME280;24553;51.640;-0.752;2023-01-30T00:19:54;101429.59;;;6.93;100.00
38812;BME280;24553;51.640;-0.752;2023-01-30T00:22:20;101425.31;;;6.92;100.00
38812;BME280;24553;51.640;-0.752;2023-01-30T00:24:45;101427.06;;;7.02;100.00
38812;BME280;24553;51.640;-0.752;2023-01-30T00:27:11;101430.91;;;7.17;100.00
38812;BME280;24553;51.640;-0.752;2023-01-30T00:29:36;101434.44;;;7.08;100.00
38812;BME280;24553;51.640;-0.752;2023-01-30T00:32:01;101431.06;;;7.15;100.00
38812;BME280;24553;51.640;-0.752;2023-01-30T00:34:27;101440.34;;;7.19;100.00
38812;BME280;24553;51.640;-0.752;2023-01-30T00:36:52;101435.22;;;7.18;100.00
38812;BME280;24553;51.640;-0.752;2023-01-30T00:39:17;101431.28;;;7.22;100.00
38812;BME280;24553;51.640;-0.752;2023-01-30T00:41:43;101429.88;;;7.28;100.00
38812;BME280;24553;51.640;-0.752;2023-01-30T00:44:26;101420.31;;;7.27;100.00
38812;BME280;24553;51.640;-0.752;2023-01-30T00:47:10;101433.38;;;7.28;100.00
38812;BME280;24553;51.640;-0.752;2023-01-30T00:49:36;101434.16;;;7.38;100.00
38812;BME280;24553;51.640;-0.752;2023-01-30T00:52:03;101431.22;;;7.41;100.00
38812;BME280;24553;51.640;-0.752;2023-01-30T00:54:29;101431.75;;;7.45;100.00
38812;BME280;24553;51.640;-0.752;2023-01-30T00:56:54;101424.22;;;7.50;100.00
38812;BME280;24553;51.640;-0.752;2023-01-30T00:59:20;101428.44;;;7.61;100.00
38812;BME280;24553;51.640;-0.752;2023-01-30T01:01:45;101418.53;;;7.73;100.00
38812;BME280;24553;51.640;-0.752;2023-01-30T01:04:10;101417.34;;;7.85;100.00
38812;BME280;24553;51.640;-0.752;2023-01-30T01:06:37;101393.78;;;7.74;100.00
38812;BME280;24553;51.640;-0.752;2023-01-30T01:09:03;101402.91;;;7.79;100.00
38812;BME280;24553;51.640;-0.752;2023-01-30T01:11:28;101407.97;;;7.73;100.00
38812;BME280;24553;51.640;-0.752;2023-01-30T01:13:55;101410.69;;;7.81;100.00
38812;BME280;24553;51.640;-0.752;2023-01-30T01:16:22;101401.88;;;7.90;100.00
38812;BME280;24553;51.640;-0.752;2023-01-30T01:18:48;101395.47;;;7.93;100.00
38812;BME280;24553;51.640;-0.752;2023-01-30T01:21:14;101374.34;;;7.75;100.00
38812;BME280;24553;51.640;-0.752;2023-01-30T01:23:39;101374.91;;;7.69;100.00
38812;BME280;24553;51.640;-0.752;2023-01-30T01:26:05;101374.47;;;7.55;100.00
38812;BME280;24553;51.640;-0.752;2023-01-30T01:28:30;101364.91;;;7.72;100.00
38812;BME280;24553;51.640;-0.752;2023-01-30T01:30:56;101366.03;;;7.88;100.00
38812;BME280;24553;51.640;-0.752;2023-01-30T01:33:25;101343.84;;;7.98;100.00
38812;BME280;24553;51.640;-0.752;2023-01-30T01:35:54;101335.59;;;8.01;100.00
38812;BME280;24553;51.640;-0.752;2023-01-30T01:38:19;101339.84;;;7.94;100.00
38812;BME280;24553;51.640;-0.752;2023-01-30T01:40:45;101353.47;;;8.07;100.00
38812;BME280;24553;51.640;-0.752;2023-01-30T01:43:34;101347.59;;;8.14;100.00
38812;BME280;24553;51.640;-0.752;2023-01-30T01:46:29;101351.47;;;8.27;100.00
38812;BME280;24553;51.640;-0.752;2023-01-30T01:48:55;101351.19;;;8.57;100.00
38812;BME280;24553;51.640;-0.752;2023-01-30T01:51:34;101348.44;;;8.66;100.00
38812;BME280;24553;51.640;-0.752;2023-01-30T01:54:08;101345.44;;;8.61;100.00
38812;BME280;24553;51.640;-0.752;2023-01-30T01:56:38;101342.53;;;8.72;100.00
38812;BME280;24553;51.640;-0.752;2023-01-30T01:59:29;101350.31;;;8.74;100.00
38812;BME280;24553;51.640;-0.752;2023-01-30T02:02:00;101346.94;;;8.64;100.00
38812;BME280;24553;51.640;-0.752;2023-01-30T02:04:29;101354.16;;;8.54;100.00
38812;BME280;24553;51.640;-0.752;2023-01-30T02:07:17;101354.06;;;8.63;100.00
38812;BME280;24553;51.640;-0.752;2023-01-30T02:09:44;101361.19;;;8.71;100.00
38812;BME280;24553;51.640;-0.752;2023-01-30T02:12:10;101354.44;;;8.77;100.00
38812;BME280;24553;51.640;-0.752;2023-01-30T02:14:37;101354.59;;;8.75;100.00
38812;BME280;24553;51.640;-0.752;2023-01-30T02:17:03;101357.22;;;8.75;100.00
38812;BME280;24553;51.640;-0.752;2023-01-30T02:19:46;101347.34;;;8.77;100.00
38812;BME280;24553;51.640;-0.752;2023-01-30T02:39:36;101354.88;;;8.64;100.00
38812;BME280;24553;51.640;-0.752;2023-01-30T02:42:23;101370.38;;;8.59;100.00
38812;BME280;24553;51.640;-0.752;2023-01-30T02:50:29;101376.41;;;8.77;100.00
38812;BME280;24553;51.640;-0.752;2023-01-30T02:52:57;101376.09;;;8.80;100.00
38812;BME280;24553;51.640;-0.752;2023-01-30T02:55:25;101380.06;;;8.76;100.00
38812;BME280;24553;51.640;-0.752;2023-01-30T02:57:51;101378.19;;;8.68;100.00
38812;BME280;24553;51.640;-0.752;2023-01-30T03:00:55;101377.41;;;8.76;100.00
38812;BME280;24553;51.640;-0.752;2023-01-30T03:15:23;101393.25;;;8.68;100.00
38812;BME280;24553;51.640;-0.752;2023-01-30T03:17:51;101387.91;;;8.60;100.00
38812;BME280;24553;51.640;-0.752;2023-01-30T03:20:18;101398.00;;;8.64;100.00
38812;BME280;24553;51.640;-0.752;2023-01-30T03:22:44;101387.91;;;8.60;100.00
38812;BME280;24553;51.640;-0.752;2023-01-30T03:25:13;101405.38;;;8.52;100.00
38812;BME280;24553;51.640;-0.752;2023-01-30T03:27:39;101397.44;;;8.35;100.00
38812;BME280;24553;51.640;-0.752;2023-01-30T03:30:05;101407.19;;;8.34;100.00
38812;BME280;24553;51.640;-0.752;2023-01-30T03:32:31;101405.00;;;8.29;100.00
38812;BME280;24553;51.640;-0.752;2023-01-30T03:34:56;101396.47;;;8.18;100.00
38812;BME280;24553;51.640;-0.752;2023-01-30T03:37:21;101391.06;;;8.01;100.00
38812;BME280;24553;51.640;-0.752;2023-01-30T03:39:47;101396.88;;;7.87;100.00
38812;BME280;24553;51.640;-0.752;2023-01-30T03:42:12;101404.97;;;7.85;100.00
38812;BME280;24553;51.640;-0.752;2023-01-30T03:44:37;101398.38;;;7.90;100.00
38812;BME280;24553;51.640;-0.752;2023-01-30T03:47:03;101405.16;;;7.74;100.00
38812;BME280;24553;51.640;-0.752;2023-01-30T03:49:28;101401.53;;;7.57;100.00
38812;BME280;24553;51.640;-0.752;2023-01-30T03:51:53;101409.09;;;7.70;100.00
38812;BME280;24553;51.640;-0.752;2023-01-30T03:54:19;101411.88;;;7.69;100.00
38812;BME280;24553;51.640;-0.752;2023-01-30T03:56:44;101415.44;;;7.59;100.00
38812;BME280;24553;51.640;-0.752;2023-01-30T03:59:09;101408.44;;;7.40;100.00
38812;BME280;24553;51.640;-0.752;2023-01-30T04:01:35;101412.28;;;7.28;100.00
38812;BME280;24553;51.640;-0.752;2023-01-30T04:04:00;101416.28;;;7.22;100.00
38812;BME280;24553;51.640;-0.752;2023-01-30T04:06:25;101428.50;;;7.33;100.00
38812;BME280;24553;51.640;-0.752;2023-01-30T04:08:52;101429.88;;;7.55;100.00
38812;BME280;24553;51.640;-0.752;2023-01-30T04:11:18;101444.53;;;7.68;100.00
38812;BME280;24553;51.640;-0.752;2023-01-30T04:13:43;101436.00;;;7.74;100.00
38812;BME280;24553;51.640;-0.752;2023-01-30T04:16:25;101443.03;;;7.65;100.00
38812;BME280;24553;51.640;-0.752;2023-01-30T04:18:51;101440.44;;;7.55;100.00
38812;BME280;24553;51.640;-0.752;2023-01-30T04:21:16;101443.28;;;7.44;100.00
38812;BME280;24553;51.640;-0.752;2023-01-30T04:23:42;101459.50;;;7.49;100.00
38812;BME280;24553;51.640;-0.752;2023-01-30T04:26:08;101463.28;;;7.47;100.00
38812;BME280;24553;51.640;-0.752;2023-01-30T04:28:34;101458.91;;;7.55;100.00
38812;BME280;24553;51.640;-0.752;2023-01-30T04:30:59;101455.88;;;7.50;100.00
38812;BME280;24553;51.640;-0.752;2023-01-30T04:33:25;101467.34;;;7.41;100.00
38812;BME280;24553;51.640;-0.752;2023-01-30T04:36:00;101467.59;;;7.38;100.00
38812;BME280;24553;51.640;-0.752;2023-01-30T04:38:27;101460.38;;;7.40;100.00
38812;BME280;24553;51.640;-0.752;2023-01-30T04:40:54;101457.59;;;7.41;100.00
38812;BME280;24553;51.640;-0.752;2023-01-30T04:43:21;101459.50;;;7.49;100.00
38812;BME280;24553;51.640;-0.752;2023-01-30T04:45:48;101468.00;;;7.43;100.00
38812;BME280;24553;51.640;-0.752;2023-01-30T04:48:14;101471.91;;;7.39;100.00
38812;BME280;24553;51.640;-0.752;2023-01-30T04:50:41;101484.34;;;7.56;100.00
38812;BME280;24553;51.640;-0.752;2023-01-30T04:53:07;101482.06;;;7.61;100.00
38812;BME280;24553;51.640;-0.752;2023-01-30T04:55:32;101485.25;;;7.65;100.00
38812;BME280;24553;51.640;-0.752;2023-01-30T04:57:58;101487.34;;;7.61;100.00
38812;BME280;24553;51.640;-0.752;2023-01-30T05:00:24;101493.66;;;7.51;100.00
38812;BME280;24553;51.640;-0.752;2023-01-30T05:02:49;101490.91;;;7.42;100.00
38812;BME280;24553;51.640;-0.752;2023-01-30T05:05:15;101503.69;;;7.47;100.00
38812;BME280;24553;51.640;-0.752;2023-01-30T05:07:40;101495.63;;;7.49;100.00
38812;BME280;24553;51.640;-0.752;2023-01-30T05:10:06;101509.44;;;7.60;100.00
38812;BME280;24553;51.640;-0.752;2023-01-30T05:12:31;101509.53;;;7.69;100.00
38812;BME280;24553;51.640;-0.752;2023-01-30T05:14:56;101504.81;;;7.72;100.00
38812;BME280;24553;51.640;-0.752;2023-01-30T05:17:22;101506.56;;;7.81;100.00
38812;BME280;24553;51.640;-0.752;2023-01-30T05:19:47;101507.41;;;8.00;100.00
38812;BME280;24553;51.640;-0.752;2023-01-30T05:22:12;101505.72;;;8.08;100.00
38812;BME280;24553;51.640;-0.752;2023-01-30T05:24:38;101497.50;;;8.29;100.00
38812;BME280;24553;51.640;-0.752;2023-01-30T05:27:03;101494.41;;;8.34;100.00
38812;BME280;24553;51.640;-0.752;2023-01-30T05:29:29;101494.41;;;8.34;100.00
38812;BME280;24553;51.640;-0.752;2023-01-30T05:31:54;101494.41;;;8.34;100.00
38812;BME280;24553;51.640;-0.752;2023-01-30T05:34:20;101492.81;;;8.41;100.00
38812;BME280;24553;51.640;-0.752;2023-01-30T05:36:45;101492.81;;;8.41;100.00
38812;BME280;24553;51.640;-0.752;2023-01-30T05:39:11;101496.72;;;8.37;100.00
38812;BME280;24553;51.640;-0.752;2023-01-30T05:41:36;101506.03;;;8.41;100.00
38812;BME280;24553;51.640;-0.752;2023-01-30T05:44:01;101498.16;;;8.32;100.00
38812;BME280;24553;51.640;-0.752;2023-01-30T05:46:26;101499.91;;;8.41;100.00
38812;BME280;24553;51.640;-0.752;2023-01-30T05:48:52;101516.06;;;8.38;100.00
38812;BME280;24553;51.640;-0.752;2023-01-30T05:51:20;101515.97;;;8.29;100.00
38812;BME280;24553;51.640;-0.752;2023-01-30T05:53:46;101505.47;;;8.20;100.00
38812;BME280;24553;51.640;-0.752;2023-01-30T05:56:11;101507.69;;;8.24;100.00
38812;BME280;24553;51.640;-0.752;2023-01-30T05:58:37;101509.09;;;8.01;100.00
38812;BME280;24553;51.640;-0.752;2023-01-30T06:01:04;101506.47;;;8.01;100.00
38812;BME280;24553;51.640;-0.752;2023-01-30T06:03:30;101505.69;;;7.91;100.00
38812;BME280;24553;51.640;-0.752;2023-01-30T06:05:56;101509.50;;;7.78;100.00
38812;BME280;24553;51.640;-0.752;2023-01-30T06:08:21;101518.59;;;7.66;100.00
38812;BME280;24553;51.640;-0.752;2023-01-30T06:10:47;101518.66;;;7.56;100.00
38812;BME280;24553;51.640;-0.752;2023-01-30T06:13:12;101516.47;;;7.42;100.00
38812;BME280;24553;51.640;-0.752;2023-01-30T06:15:37;101527.03;;;7.42;100.00
38812;BME280;24553;51.640;-0.752;2023-01-30T06:18:03;101525.16;;;7.25;100.00
38812;BME280;24553;51.640;-0.752;2023-01-30T06:20:29;101517.97;;;7.07;100.00
38812;BME280;24553;51.640;-0.752;2023-01-30T06:22:54;101516.72;;;7.02;100.00
38812;BME280;24553;51.640;-0.752;2023-01-30T06:25:19;101512.47;;;6.91;100.00
38812;BME280;24553;51.640;-0.752;2023-01-30T06:27:45;101507.47;;;6.88;100.00
38812;BME280;24553;51.640;-0.752;2023-01-30T06:30:11;101522.34;;;6.79;100.00
38812;BME280;24553;51.640;-0.752;2023-01-30T06:32:37;101522.47;;;6.77;100.00
38812;BME280;24553;51.640;-0.752;2023-01-30T06:35:02;101514.97;;;6.83;100.00
38812;BME280;24553;51.640;-0.752;2023-01-30T06:37:28;101524.44;;;6.56;100.00
38812;BME280;24553;51.640;-0.752;2023-01-30T06:39:53;101523.84;;;6.43;100.00
38812;BME280;24553;51.640;-0.752;2023-01-30T06:42:18;101536.50;;;6.39;100.00
38812;BME280;24553;51.640;-0.752;2023-01-30T06:44:44;101536.91;;;6.25;100.00
38812;BME280;24553;51.640;-0.752;2023-01-30T06:47:09;101544.63;;;6.07;100.00
38812;BME280;24553;51.640;-0.752;2023-01-30T06:49:34;101544.38;;;5.79;100.00
38812;BME280;24553;51.640;-0.752;2023-01-30T06:52:00;101549.19;;;5.64;100.00
38812;BME280;24553;51.640;-0.752;2023-01-30T06:54:25;101547.44;;;5.44;100.00
38812;BME280;24553;51.640;-0.752;2023-01-30T06:56:50;101550.09;;;5.23;100.00
38812;BME280;24553;51.640;-0.752;2023-01-30T06:59:16;101558.34;;;5.18;100.00
38812;BME280;24553;51.640;-0.752;2023-01-30T07:01:41;101562.94;;;5.16;100.00
38812;BME280;24553;51.640;-0.752;2023-01-30T07:04:06;101566.19;;;5.30;100.00
38812;BME280;24553;51.640;-0.752;2023-01-30T07:06:32;101570.59;;;5.29;100.00
38812;BME280;24553;51.640;-0.752;2023-01-30T07:08:57;101578.91;;;5.24;100.00
38812;BME280;24553;51.640;-0.752;2023-01-30T07:11:24;101577.19;;;5.44;100.00
38812;BME280;24553;51.640;-0.752;2023-01-30T07:13:49;101572.34;;;5.40;100.00
38812;BME280;24553;51.640;-0.752;2023-01-30T07:16:14;101569.44;;;5.43;100.00
38812;BME280;24553;51.640;-0.752;2023-01-30T07:18:40;101580.03;;;5.53;100.00
38812;BME280;24553;51.640;-0.752;2023-01-30T07:21:05;101590.41;;;5.54;100.00
38812;BME280;24553;51.640;-0.752;2023-01-30T07:23:30;101599.00;;;5.56;100.00
38812;BME280;24553;51.640;-0.752;2023-01-30T07:25:56;101596.50;;;5.34;100.00
38812;BME280;24553;51.640;-0.752;2023-01-30T07:28:21;101610.91;;;5.09;100.00
38812;BME280;24553;51.640;-0.752;2023-01-30T07:30:46;101621.06;;;4.81;100.00
38812;BME280;24553;51.640;-0.752;2023-01-30T07:33:14;101616.69;;;4.70;100.00
38812;BME280;24553;51.640;-0.752;2023-01-30T07:35:39;101620.72;;;4.74;100.00
38812;BME280;24553;51.640;-0.752;2023-01-30T07:38:04;101636.34;;;4.76;100.00
38812;BME280;24553;51.640;-0.752;2023-01-30T07:40:30;101639.00;;;4.76;100.00
38812;BME280;24553;51.640;-0.752;2023-01-30T07:43:01;101647.59;;;4.78;100.00
38812;BME280;24553;51.640;-0.752;2023-01-30T07:45:30;101655.88;;;4.94;100.00
38812;BME280;24553;51.640;-0.752;2023-01-30T07:47:58;101636.28;;;4.98;100.00
38812;BME280;24553;51.640;-0.752;2023-01-30T07:50:23;101631.25;;;4.95;100.00
38812;BME280;24553;51.640;-0.752;2023-01-30T07:52:49;101629.75;;;4.81;100.00
38812;BME280;24553;51.640;-0.752;2023-01-30T07:55:14;101634.84;;;4.94;100.00
38812;BME280;24553;51.640;-0.752;2023-01-30T07:57:39;101630.78;;;5.01;100.00
38812;BME280;24553;51.640;-0.752;2023-01-30T08:00:06;101645.31;;;5.06;100.00
38812;BME280;24553;51.640;-0.752;2023-01-30T08:02:31;101640.00;;;4.96;100.00
38812;BME280;24553;51.640;-0.752;2023-01-30T08:04:57;101644.03;;;5.00;100.00
38812;BME280;24553;51.640;-0.752;2023-01-30T08:07:22;101643.59;;;5.16;100.00
38812;BME280;24553;51.640;-0.752;2023-01-30T08:09:47;101650.81;;;5.35;100.00
38812;BME280;24553;51.640;-0.752;2023-01-30T08:12:13;101656.09;;;5.44;100.00
38812;BME280;24553;51.640;-0.752;2023-01-30T08:14:38;101674.28;;;5.47;100.00
38812;BME280;24553;51.640;-0.752;2023-01-30T08:17:04;101673.72;;;5.75;100.00
38812;BME280;24553;51.640;-0.752;2023-01-30T08:19:29;101676.44;;;5.84;100.00
38812;BME280;24553;51.640;-0.752;2023-01-30T08:21:54;101675.72;;;5.82;100.00
38812;BME280;24553;51.640;-0.752;2023-01-30T08:24:20;101679.50;;;5.89;100.00
38812;BME280;24553;51.640;-0.752;2023-01-30T08:26:47;101687.34;;;6.01;100.00
38812;BME280;24553;51.640;-0.752;2023-01-30T08:29:13;101694.91;;;6.15;100.00
38812;BME280;24553;51.640;-0.752;2023-01-30T08:31:38;101693.84;;;6.27;100.00
38812;BME280;24553;51.640;-0.752;2023-01-30T08:34:04;101691.38;;;6.36;100.00
38812;BME280;24553;51.640;-0.752;2023-01-30T08:36:29;101691.09;;;6.39;100.00
38812;BME280;24553;51.640;-0.752;2023-01-30T08:38:54;101698.56;;;6.33;100.00
38812;BME280;24553;51.640;-0.752;2023-01-30T08:41:20;101703.50;;;6.27;100.00
38812;BME280;24553;51.640;-0.752;2023-01-30T08:43:45;101705.97;;;6.19;100.00
38812;BME280;24553;51.640;-0.752;2023-01-30T08:46:10;101708.22;;;6.23;100.00
38812;BME280;24553;51.640;-0.752;2023-01-30T08:48:36;101721.78;;;6.19;100.00
38812;BME280;24553;51.640;-0.752;2023-01-30T08:51:04;101712.22;;;6.18;100.00
38812;BME280;24553;51.640;-0.752;2023-01-30T08:53:30;101707.44;;;6.32;100.00
38812;BME280;24553;51.640;-0.752;2023-01-30T08:55:55;101700.94;;;6.37;100.00
38812;BME280;24553;51.640;-0.752;2023-01-30T08:58:21;101710.06;;;6.32;100.00
38812;BME280;24553;51.640;-0.752;2023-01-30T09:00:47;101699.34;;;6.24;100.00
38812;BME280;24553;51.640;-0.752;2023-01-30T09:03:13;101704.38;;;6.27;100.00
38812;BME280;24553;51.640;-0.752;2023-01-30T09:05:39;101697.41;;;6.26;100.00
38812;BME280;24553;51.640;-0.752;2023-01-30T09:08:04;101695.22;;;6.31;100.00
38812;BME280;24553;51.640;-0.752;2023-01-30T09:10:30;101699.88;;;6.18;100.00
38812;BME280;24553;51.640;-0.752;2023-01-30T09:12:55;101726.22;;;6.18;100.00
38812;BME280;24553;51.640;-0.752;2023-01-30T09:15:20;101725.56;;;6.26;100.00
38812;BME280;24553;51.640;-0.752;2023-01-30T09:17:46;101731.00;;;6.34;100.00
38812;BME280;24553;51.640;-0.752;2023-01-30T09:20:11;101737.41;;;6.41;100.00
38812;BME280;24553;51.640;-0.752;2023-01-30T09:22:37;101736.31;;;6.44;100.00
38812;BME280;24553;51.640;-0.752;2023-01-30T09:25:03;101725.50;;;6.47;100.00
38812;BME280;24553;51.640;-0.752;2023-01-30T09:27:29;101721.22;;;6.55;100.00
38812;BME280;24553;51.640;-0.752;2023-01-30T09:29:54;101715.84;;;6.67;100.00
38812;BME280;24553;51.640;-0.752;2023-01-30T09:32:20;101711.00;;;6.62;100.00
38812;BME280;24553;51.640;-0.752;2023-01-30T09:34:45;101717.94;;;6.73;100.00
38812;BME280;24553;51.640;-0.752;2023-01-30T09:37:11;101718.94;;;6.82;100.00
38812;BME280;24553;51.640;-0.752;2023-01-30T09:39:36;101721.72;;;6.90;100.00
38812;BME280;24553;51.640;-0.752;2023-01-30T09:47:11;101719.50;;;7.05;100.00
38812;BME280;24553;51.640;-0.752;2023-01-30T09:52:50;101725.50;;;7.16;100.00
38812;BME280;24553;51.640;-0.752;2023-01-30T09:55:23;101722.47;;;7.31;100.00
38812;BME280;24553;51.640;-0.752;2023-01-30T09:57:49;101728.97;;;7.27;100.00
38812;BME280;24553;51.640;-0.752;2023-01-30T10:00:32;101727.84;;;7.19;100.00
38812;BME280;24553;51.640;-0.752;2023-01-30T10:03:18;101735.38;;;7.34;100.00
38812;BME280;24553;51.640;-0.752;2023-01-30T10:05:53;101729.22;;;7.04;100.00
38812;BME280;24553;51.640;-0.752;2023-01-30T10:13:52;101726.59;;;7.04;100.00
38812;BME280;24553;51.640;-0.752;2023-01-30T10:24:45;101769.13;;;7.59;100.00
38812;BME280;24553;51.640;-0.752;2023-01-30T10:27:16;101760.34;;;7.69;100.00
38812;BME280;24553;51.640;-0.752;2023-01-30T10:29:53;101758.22;;;7.92;100.00
38812;BME280;24553;51.640;-0.752;2023-01-30T10:32:28;101754.72;;;8.11;100.00
38812;BME280;24553;51.640;-0.752;2023-01-30T10:34:59;101761.88;;;8.28;100.00
38812;BME280;24553;51.640;-0.752;2023-01-30T10:37:32;101765.78;;;8.24;100.00
38812;BME280;24553;51.640;-0.752;2023-01-30T10:40:37;101753.81;;;8.29;100.00
38812;BME280;24553;51.640;-0.752;2023-01-30T10:46:06;101752.91;;;8.39;100.00
38812;BME280;24553;51.640;-0.752;2023-01-30T10:48:50;101751.75;;;8.61;100.00
38812;BME280;24553;51.640;-0.752;2023-01-30T10:51:27;101755.19;;;8.71;100.00
38812;BME280;24553;51.640;-0.752;2023-01-30T10:54:09;101765.16;;;8.77;100.00
38812;BME280;24553;51.640;-0.752;2023-01-30T10:56:46;101770.00;;;8.82;100.00
38812;BME280;24553;51.640;-0.752;2023-01-30T11:02:11;101783.22;;;8.82;100.00
38812;BME280;24553;51.640;-0.752;2023-01-30T11:04:50;101780.91;;;8.97;100.00
38812;BME280;24553;51.640;-0.752;2023-01-30T11:07:20;101761.50;;;9.06;100.00
38812;BME280;24553;51.640;-0.752;2023-01-30T11:09:46;101776.41;;;9.07;100.00
38812;BME280;24553;51.640;-0.752;2023-01-30T11:12:13;101784.91;;;9.01;100.00
38812;BME280;24553;51.640;-0.752;2023-01-30T11:14:58;101774.56;;;8.89;100.00
38812;BME280;24553;51.640;-0.752;2023-01-30T11:20:03;101777.81;;;8.83;100.00
38812;BME280;24553;51.640;-0.752;2023-01-30T11:22:32;101777.59;;;8.67;100.00
38812;BME280;24553;51.640;-0.752;2023-01-30T11:25:00;101781.25;;;8.56;100.00
38812;BME280;24553;51.640;-0.752;2023-01-30T11:27:30;101780.34;;;8.38;100.00
38812;BME280;24553;51.640;-0.752;2023-01-30T11:30:09;101784.94;;;8.26;100.00
38812;BME280;24553;51.640;-0.752;2023-01-30T11:32:36;101791.13;;;8.07;100.00
38812;BME280;24553;51.640;-0.752;2023-01-30T11:40:13;101781.97;;;8.01;100.00
38812;BME280;24553;51.640;-0.752;2023-01-30T11:42:49;101762.78;;;8.09;100.00
38812;BME280;24553;51.640;-0.752;2023-01-30T11:45:17;101759.69;;;8.14;100.00
38812;BME280;24553;51.640;-0.752;2023-01-30T11:47:57;101768.03;;;8.19;100.00
38812;BME280;24553;51.640;-0.752;2023-01-30T11:50:30;101768.84;;;8.19;100.00
38812;BME280;24553;51.640;-0.752;2023-01-30T11:53:00;101744.66;;;8.24;100.00
38812;BME280;24553;51.640;-0.752;2023-01-30T11:55:27;101736.03;;;8.22;100.00
38812;BME280;24553;51.640;-0.752;2023-01-30T11:57:55;101752.31;;;8.17;100.00
38812;BME280;24553;51.640;-0.752;2023-01-30T12:00:35;101753.19;;;8.08;100.00
38812;BME280;24553;51.640;-0.752;2023-01-30T12:03:05;101759.44;;;8.07;100.00
38812;BME280;24553;51.640;-0.752;2023-01-30T12:05:37;101766.34;;;8.18;100.00
38812;BME280;24553;51.640;-0.752;2023-01-30T12:10:42;101778.72;;;8.27;100.00
38812;BME280;24553;51.640;-0.752;2023-01-30T12:13:17;101782.75;;;8.21;100.00
38812;BME280;24553;51.640;-0.752;2023-01-30T12:15:45;101787.19;;;8.21;100.00
38812;BME280;24553;51.640;-0.752;2023-01-30T12:18:25;101788.84;;;8.32;100.00
38812;BME280;24553;51.640;-0.752;2023-01-30T12:23:39;101794.81;;;8.34;100.00
38812;BME280;24553;51.640;-0.752;2023-01-30T12:26:12;101793.47;;;8.20;100.00
38812;BME280;24553;51.640;-0.752;2023-01-30T12:28:54;101784.41;;;8.32;100.00
38812;BME280;24553;51.640;-0.752;2023-01-30T12:31:28;101778.69;;;8.37;100.00
38812;BME280;24553;51.640;-0.752;2023-01-30T12:33:56;101777.16;;;8.34;100.00
38812;BME280;24553;51.640;-0.752;2023-01-30T12:38:55;101783.09;;;8.83;100.00
38812;BME280;24553;51.640;-0.752;2023-01-30T12:41:34;101777.75;;;9.11;100.00
38812;BME280;24553;51.640;-0.752;2023-01-30T12:47:14;101778.44;;;9.13;100.00
38812;BME280;24553;51.640;-0.752;2023-01-30T12:52:40;101764.25;;;9.14;100.00
38812;BME280;24553;51.640;-0.752;2023-01-30T12:55:21;101760.31;;;9.36;100.00
38812;BME280;24553;51.640;-0.752;2023-01-30T13:04:11;101761.66;;;9.58;100.00
38812;BME280;24553;51.640;-0.752;2023-01-30T13:15:34;101753.09;;;9.64;100.00
38812;BME280;24553;51.640;-0.752;2023-01-30T13:18:19;101745.56;;;9.77;100.00
38812;BME280;24553;51.640;-0.752;2023-01-30T13:21:06;101729.59;;;9.87;100.00
38812;BME280;24553;51.640;-0.752;2023-01-30T13:26:09;101735.75;;;10.22;100.00
38812;BME280;24553;51.640;-0.752;2023-01-30T13:29:01;101743.19;;;10.18;100.00
38812;BME280;24553;51.640;-0.752;2023-01-30T13:31:31;101733.47;;;10.01;100.00
38812;BME280;24553;51.640;-0.752;2023-01-30T13:36:38;101743.03;;;9.94;100.00
38812;BME280;24553;51.640;-0.752;2023-01-30T13:39:13;101758.28;;;9.92;100.00
38812;BME280;24553;51.640;-0.752;2023-01-30T13:41:44;101748.78;;;9.63;100.00
38812;BME280;24553;51.640;-0.752;2023-01-30T13:44:28;101758.25;;;9.66;100.00
38812;BME280;24553;51.640;-0.752;2023-01-30T13:46:56;101743.19;;;9.66;100.00
38812;BME280;24553;51.640;-0.752;2023-01-30T13:52:08;101735.38;;;9.65;100.00
38812;BME280;24553;51.640;-0.752;2023-01-30T14:00:27;101714.75;;;9.68;100.00
38812;BME280;24553;51.640;-0.752;2023-01-30T14:08:20;101725.94;;;9.62;100.00
38812;BME280;24553;51.640;-0.752;2023-01-30T14:10:47;101722.84;;;9.49;100.00
38812;BME280;24553;51.640;-0.752;2023-01-30T14:13:14;101735.41;;;9.47;100.00
38812;BME280;24553;51.640;-0.752;2023-01-30T14:15:52;101731.69;;;9.39;100.00
38812;BME280;24553;51.640;-0.752;2023-01-30T14:18:30;101741.53;;;9.47;100.00
38812;BME280;24553;51.640;-0.752;2023-01-30T14:23:53;101755.94;;;9.27;100.00
38812;BME280;24553;51.640;-0.752;2023-01-30T14:39:54;101758.59;;;9.27;100.00
38812;BME280;24553;51.640;-0.752;2023-01-30T14:42:25;101760.38;;;9.26;100.00
38812;BME280;24553;51.640;-0.752;2023-01-30T14:45:00;101764.75;;;9.17;100.00
38812;BME280;24553;51.640;-0.752;2023-01-30T14:47:28;101764.00;;;9.07;100.00
38812;BME280;24553;51.640;-0.752;2023-01-30T14:49:53;101779.06;;;9.25;100.00
38812;BME280;24553;51.640;-0.752;2023-01-30T14:52:40;101763.63;;;9.20;100.00
38812;BME280;24553;51.640;-0.752;2023-01-30T14:55:18;101763.38;;;9.13;100.00
38812;BME280;24553;51.640;-0.752;2023-01-30T14:57:52;101759.00;;;9.04;100.00
38812;BME280;24553;51.640;-0.752;2023-01-30T15:00:20;101769.28;;;9.07;100.00
38812;BME280;24553;51.640;-0.752;2023-01-30T15:02:51;101776.59;;;8.95;100.00